PWSweather.com
Personal Weather Stations
Station Observations
KNEOMAHA440
Merrifield Village, Omaha, NE 68130

Merrifield VillageOmaha, NE 68130

Lat: 41.241407, Lon: -96.182967

Elevation: 1220

Station Type: Davis VantagePro2

Latest ConditionsUpdated 11:40:00 AM CST Tuesday, Jan 22, 2019
Currently Today's Max Today's Min Today's Average
Temperature 23.4°F-4.8°C 27.4°F-2.6°C 23.0°F-5.0°C 24.7°F-4.1°C
Dew Point 20.1°F-6.6°C 24.1°F-4.4°C 19.2°F-7.1°C 21.7°F-5.7°C
Winds 2.0 mph W3.2 kmh W 4.0 mph -6.4 kmh - - 1.5 mph 2.4 kmh
Wind Gusts 6.0 mph9.7 kmh 12.0 mph19.3 kmh - -
Humidity 87% 93% 85% 88%
Pressure 30.10 in1019.3 mb 30.10 in1019.3 mb 29.89 in1012.2 mb -
Hour Temp Dew Point Humidity Winds Wind Gusts Pressure Precip Precip Rate Daily Precip Total
11:40 AM 23.4°F-4.8°C 20.1°F-6.6°C 87% 2.0 mph W3.2 kmh W 6.0 mph9.7 kmh 30.10 in1019.3 mb 0.00 in0.0 mm 0.00 in0.0 mm 0.00 in0.0 mm
11:35 AM 23.5°F-4.7°C 20.2°F-6.6°C 87% 3.0 mph SE4.8 kmh SE 12.0 mph19.3 kmh 30.09 in1019.0 mb 0.00 in0.0 mm 0.00 in0.0 mm 0.00 in0.0 mm
11:30 AM 23.5°F-4.7°C 20.2°F-6.6°C 87% 2.0 mph SE3.2 kmh SE 6.0 mph9.7 kmh 30.08 in1018.6 mb 0.00 in0.0 mm 0.00 in0.0 mm 0.00 in0.0 mm
11:25 AM 23.4°F-4.8°C 20.1°F-6.6°C 87% 2.0 mph SW3.2 kmh SW 7.0 mph11.3 kmh 30.08 in1018.6 mb 0.00 in0.0 mm 0.00 in0.0 mm 0.00 in0.0 mm
11:20 AM 23.4°F-4.8°C 20.1°F-6.6°C 87% 3.0 mph W4.8 kmh W 12.0 mph19.3 kmh 30.08 in1018.6 mb 0.00 in0.0 mm 0.00 in0.0 mm 0.00 in0.0 mm
11:15 AM 23.4°F-4.8°C 20.1°F-6.6°C 87% 2.0 mph SE3.2 kmh SE 6.0 mph9.7 kmh 30.07 in1018.3 mb 0.00 in0.0 mm 0.00 in0.0 mm 0.00 in0.0 mm
11:10 AM 23.4°F-4.8°C 20.1°F-6.6°C 87% 3.0 mph ESE4.8 kmh ESE 8.0 mph12.9 kmh 30.08 in1018.6 mb 0.00 in0.0 mm 0.00 in0.0 mm 0.00 in0.0 mm
11:05 AM 23.5°F-4.7°C 19.9°F-6.7°C 86% 3.0 mph NE4.8 kmh NE 8.0 mph12.9 kmh 30.07 in1018.3 mb 0.00 in0.0 mm 0.00 in0.0 mm 0.00 in0.0 mm
11:00 AM 23.5°F-4.7°C 20.2°F-6.6°C 87% 2.0 mph ESE3.2 kmh ESE 9.0 mph14.5 kmh 30.07 in1018.3 mb 0.00 in0.0 mm 0.00 in0.0 mm 0.00 in0.0 mm
10:55 AM 23.5°F-4.7°C 19.9°F-6.7°C 86% 2.0 mph W3.2 kmh W 7.0 mph11.3 kmh 30.07 in1018.3 mb 0.00 in0.0 mm 0.00 in0.0 mm 0.00 in0.0 mm
10:50 AM 23.5°F-4.7°C 20.2°F-6.6°C 87% 2.0 mph ESE3.2 kmh ESE 7.0 mph11.3 kmh 30.07 in1018.3 mb 0.00 in0.0 mm 0.00 in0.0 mm 0.00 in0.0 mm
10:45 AM 23.4°F-4.8°C 20.1°F-6.6°C 87% 2.0 mph E3.2 kmh E 9.0 mph14.5 kmh 30.07 in1018.3 mb 0.00 in0.0 mm 0.00 in0.0 mm 0.00 in0.0 mm
10:40 AM 23.4°F-4.8°C 19.8°F-6.8°C 86% 3.0 mph W4.8 kmh W 11.0 mph17.7 kmh 30.07 in1018.3 mb 0.00 in0.0 mm 0.00 in0.0 mm 0.00 in0.0 mm
10:35 AM 23.5°F-4.7°C 20.2°F-6.6°C 87% 2.0 mph W3.2 kmh W 9.0 mph14.5 kmh 30.07 in1018.3 mb 0.00 in0.0 mm 0.00 in0.0 mm 0.00 in0.0 mm
10:30 AM 23.4°F-4.8°C 20.1°F-6.6°C 87% 3.0 mph W4.8 kmh W 12.0 mph19.3 kmh 30.06 in1017.9 mb 0.00 in0.0 mm 0.00 in0.0 mm 0.00 in0.0 mm
10:25 AM 23.4°F-4.8°C 20.1°F-6.6°C 87% 3.0 mph WNW4.8 kmh WNW 10.0 mph16.1 kmh 30.07 in1018.3 mb 0.00 in0.0 mm 0.00 in0.0 mm 0.00 in0.0 mm
10:20 AM 23.4°F-4.8°C 20.4°F-6.4°C 88% 2.0 mph SSE3.2 kmh SSE 5.0 mph8.0 kmh 30.06 in1017.9 mb 0.00 in0.0 mm 0.00 in0.0 mm 0.00 in0.0 mm
10:15 AM 23.5°F-4.7°C 20.5°F-6.4°C 88% 2.0 mph WSW3.2 kmh WSW 6.0 mph9.7 kmh 30.07 in1018.3 mb 0.00 in0.0 mm 0.00 in0.0 mm 0.00 in0.0 mm
10:10 AM 23.6°F-4.7°C 20.8°F-6.2°C 89% 2.0 mph 3.2 kmh 11.0 mph17.7 kmh 30.05 in1017.6 mb 0.00 in0.0 mm 0.00 in0.0 mm 0.00 in0.0 mm
10:05 AM 23.6°F-4.7°C 20.8°F-6.2°C 89% 2.0 mph E3.2 kmh E 6.0 mph9.7 kmh 30.05 in1017.6 mb 0.00 in0.0 mm 0.00 in0.0 mm 0.00 in0.0 mm
10:00 AM 23.5°F-4.7°C 20.7°F-6.3°C 89% 2.0 mph SSE3.2 kmh SSE 5.0 mph8.0 kmh 30.06 in1017.9 mb 0.00 in0.0 mm 0.00 in0.0 mm 0.00 in0.0 mm
09:55 AM 23.5°F-4.7°C 20.7°F-6.3°C 89% 2.0 mph E3.2 kmh E 8.0 mph12.9 kmh 30.05 in1017.6 mb 0.00 in0.0 mm 0.00 in0.0 mm 0.00 in0.0 mm
09:50 AM 23.5°F-4.7°C 20.7°F-6.3°C 89% 3.0 mph WNW4.8 kmh WNW 9.0 mph14.5 kmh 30.05 in1017.6 mb 0.00 in0.0 mm 0.00 in0.0 mm 0.00 in0.0 mm
09:45 AM 23.4°F-4.8°C 20.9°F-6.2°C 90% 2.0 mph WNW3.2 kmh WNW 6.0 mph9.7 kmh 30.04 in1017.3 mb 0.00 in0.0 mm 0.00 in0.0 mm 0.00 in0.0 mm
09:40 AM 23.3°F-4.8°C 20.8°F-6.2°C 90% 2.0 mph ESE3.2 kmh ESE 5.0 mph8.0 kmh 30.04 in1017.3 mb 0.00 in0.0 mm 0.00 in0.0 mm 0.00 in0.0 mm
09:35 AM 23.3°F-4.8°C 21.1°F-6.1°C 91% 2.0 mph E3.2 kmh E 7.0 mph11.3 kmh 30.03 in1016.9 mb 0.00 in0.0 mm 0.00 in0.0 mm 0.00 in0.0 mm
09:30 AM 23.3°F-4.8°C 21.1°F-6.1°C 91% 2.0 mph ESE3.2 kmh ESE 10.0 mph16.1 kmh 30.03 in1016.9 mb 0.00 in0.0 mm 0.00 in0.0 mm 0.00 in0.0 mm
09:25 AM 23.3°F-4.8°C 21.3°F-5.9°C 92% 2.0 mph NNE3.2 kmh NNE 5.0 mph8.0 kmh 30.03 in1016.9 mb 0.00 in0.0 mm 0.00 in0.0 mm 0.00 in0.0 mm
09:20 AM 23.3°F-4.8°C 21.3°F-5.9°C 92% 2.0 mph NE3.2 kmh NE 7.0 mph11.3 kmh 30.04 in1017.3 mb 0.00 in0.0 mm 0.00 in0.0 mm 0.00 in0.0 mm
09:15 AM 23.3°F-4.8°C 21.3°F-5.9°C 92% 2.0 mph SE3.2 kmh SE 5.0 mph8.0 kmh 30.04 in1017.3 mb 0.00 in0.0 mm 0.00 in0.0 mm 0.00 in0.0 mm
09:10 AM 23.3°F-4.8°C 21.3°F-5.9°C 92% 2.0 mph WNW3.2 kmh WNW 10.0 mph16.1 kmh 30.04 in1017.3 mb 0.00 in0.0 mm 0.00 in0.0 mm 0.00 in0.0 mm
09:05 AM 23.4°F-4.8°C 21.4°F-5.9°C 92% 2.0 mph ENE3.2 kmh ENE 5.0 mph8.0 kmh 30.03 in1016.9 mb 0.00 in0.0 mm 0.00 in0.0 mm 0.00 in0.0 mm
09:00 AM 23.4°F-4.8°C 21.4°F-5.9°C 92% 1.0 mph SE1.6 kmh SE 3.0 mph4.8 kmh 30.02 in1016.6 mb 0.00 in0.0 mm 0.00 in0.0 mm 0.00 in0.0 mm
08:55 AM 23.3°F-4.8°C 21.3°F-5.9°C 92% 2.0 mph E3.2 kmh E 8.0 mph12.9 kmh 30.02 in1016.6 mb 0.00 in0.0 mm 0.00 in0.0 mm 0.00 in0.0 mm
08:50 AM 23.4°F-4.8°C 21.4°F-5.9°C 92% 3.0 mph ESE4.8 kmh ESE 8.0 mph12.9 kmh 30.02 in1016.6 mb 0.00 in0.0 mm 0.00 in0.0 mm 0.00 in0.0 mm
08:45 AM 23.4°F-4.8°C 21.4°F-5.9°C 92% 2.0 mph ESE3.2 kmh ESE 9.0 mph14.5 kmh 30.01 in1016.3 mb 0.00 in0.0 mm 0.00 in0.0 mm 0.00 in0.0 mm
08:40 AM 23.5°F-4.7°C 21.5°F-5.8°C 92% 2.0 mph SE3.2 kmh SE 7.0 mph11.3 kmh 30.01 in1016.3 mb 0.00 in0.0 mm 0.00 in0.0 mm 0.00 in0.0 mm
08:35 AM 23.6°F-4.7°C 21.6°F-5.8°C 92% 2.0 mph SE3.2 kmh SE 6.0 mph9.7 kmh 30.01 in1016.3 mb 0.00 in0.0 mm 0.00 in0.0 mm 0.00 in0.0 mm
08:30 AM 23.7°F-4.6°C 21.7°F-5.7°C 92% 2.0 mph WSW3.2 kmh WSW 8.0 mph12.9 kmh 30.01 in1016.3 mb 0.00 in0.0 mm 0.00 in0.0 mm 0.00 in0.0 mm
08:25 AM 23.8°F-4.6°C 21.8°F-5.7°C 92% 2.0 mph W3.2 kmh W 6.0 mph9.7 kmh 30.01 in1016.3 mb 0.00 in0.0 mm 0.00 in0.0 mm 0.00 in0.0 mm
08:20 AM 23.8°F-4.6°C 21.8°F-5.7°C 92% 2.0 mph E3.2 kmh E 5.0 mph8.0 kmh 30.01 in1016.3 mb 0.00 in0.0 mm 0.00 in0.0 mm 0.00 in0.0 mm
08:15 AM 23.9°F-4.5°C 21.9°F-5.6°C 92% 2.0 mph W3.2 kmh W 6.0 mph9.7 kmh 30.00 in1015.9 mb 0.00 in0.0 mm 0.00 in0.0 mm 0.00 in0.0 mm
08:10 AM 23.9°F-4.5°C 21.9°F-5.6°C 92% 2.0 mph SSE3.2 kmh SSE 7.0 mph11.3 kmh 30.01 in1016.3 mb 0.00 in0.0 mm 0.00 in0.0 mm 0.00 in0.0 mm
08:05 AM 24.0°F-4.4°C 22.0°F-5.6°C 92% 2.0 mph WNW3.2 kmh WNW 6.0 mph9.7 kmh 30.00 in1015.9 mb 0.00 in0.0 mm 0.00 in0.0 mm 0.00 in0.0 mm
08:00 AM 24.0°F-4.4°C 22.3°F-5.4°C 93% 2.0 mph E3.2 kmh E 6.0 mph9.7 kmh 30.00 in1015.9 mb 0.00 in0.0 mm 0.00 in0.0 mm 0.00 in0.0 mm
07:55 AM 24.1°F-4.4°C 22.4°F-5.3°C 93% 2.0 mph W3.2 kmh W 4.0 mph6.4 kmh 30.00 in1015.9 mb 0.00 in0.0 mm 0.00 in0.0 mm 0.00 in0.0 mm
07:50 AM 24.1°F-4.4°C 22.4°F-5.3°C 93% 1.0 mph ESE1.6 kmh ESE 7.0 mph11.3 kmh 30.00 in1015.9 mb 0.00 in0.0 mm 0.00 in0.0 mm 0.00 in0.0 mm
07:45 AM 24.1°F-4.4°C 22.4°F-5.3°C 93% 1.0 mph 1.6 kmh 4.0 mph6.4 kmh 29.99 in1015.6 mb 0.00 in0.0 mm 0.00 in0.0 mm 0.00 in0.0 mm
07:40 AM 24.1°F-4.4°C 22.4°F-5.3°C 93% 1.0 mph NE1.6 kmh NE 6.0 mph9.7 kmh 29.98 in1015.2 mb 0.00 in0.0 mm 0.00 in0.0 mm 0.00 in0.0 mm
07:35 AM 24.2°F-4.3°C 22.5°F-5.3°C 93% 1.0 mph ESE1.6 kmh ESE 8.0 mph12.9 kmh 29.97 in1014.9 mb 0.00 in0.0 mm 0.00 in0.0 mm 0.00 in0.0 mm
07:30 AM 24.1°F-4.4°C 22.4°F-5.3°C 93% 1.0 mph ESE1.6 kmh ESE 4.0 mph6.4 kmh 29.97 in1014.9 mb 0.00 in0.0 mm 0.00 in0.0 mm 0.00 in0.0 mm
07:25 AM 24.2°F-4.3°C 22.5°F-5.3°C 93% 2.0 mph E3.2 kmh E 4.0 mph6.4 kmh 29.97 in1014.9 mb 0.00 in0.0 mm 0.00 in0.0 mm 0.00 in0.0 mm
07:20 AM 24.2°F-4.3°C 22.2°F-5.4°C 92% 1.0 mph ESE1.6 kmh ESE 5.0 mph8.0 kmh 29.97 in1014.9 mb 0.00 in0.0 mm 0.00 in0.0 mm 0.00 in0.0 mm
07:15 AM 24.2°F-4.3°C 22.2°F-5.4°C 92% 2.0 mph ENE3.2 kmh ENE 4.0 mph6.4 kmh 29.96 in1014.6 mb 0.00 in0.0 mm 0.00 in0.0 mm 0.00 in0.0 mm
07:10 AM 24.2°F-4.3°C 22.5°F-5.3°C 93% 1.0 mph WNW1.6 kmh WNW 5.0 mph8.0 kmh 29.96 in1014.6 mb 0.00 in0.0 mm 0.00 in0.0 mm 0.00 in0.0 mm
07:05 AM 24.3°F-4.3°C 22.6°F-5.2°C 93% 2.0 mph E3.2 kmh E 10.0 mph16.1 kmh 29.96 in1014.6 mb 0.00 in0.0 mm 0.00 in0.0 mm 0.00 in0.0 mm
07:00 AM 24.3°F-4.3°C 22.3°F-5.4°C 92% 1.0 mph SE1.6 kmh SE 4.0 mph6.4 kmh 29.97 in1014.9 mb 0.00 in0.0 mm 0.00 in0.0 mm 0.00 in0.0 mm
06:55 AM 24.3°F-4.3°C 22.3°F-5.4°C 92% 1.0 mph 1.6 kmh 3.0 mph4.8 kmh 29.97 in1014.9 mb 0.00 in0.0 mm 0.00 in0.0 mm 0.00 in0.0 mm
06:50 AM 24.3°F-4.3°C 22.3°F-5.4°C 92% 1.0 mph SE1.6 kmh SE 3.0 mph4.8 kmh 29.97 in1014.9 mb 0.00 in0.0 mm 0.00 in0.0 mm 0.00 in0.0 mm
06:45 AM 24.4°F-4.2°C 22.4°F-5.3°C 92% 1.0 mph ENE1.6 kmh ENE 4.0 mph6.4 kmh 29.97 in1014.9 mb 0.00 in0.0 mm 0.00 in0.0 mm 0.00 in0.0 mm
06:40 AM 24.5°F-4.2°C 22.5°F-5.3°C 92% 1.0 mph SE1.6 kmh SE 5.0 mph8.0 kmh 29.96 in1014.6 mb 0.00 in0.0 mm 0.00 in0.0 mm 0.00 in0.0 mm
06:35 AM 24.5°F-4.2°C 22.5°F-5.3°C 92% 1.0 mph W1.6 kmh W 8.0 mph12.9 kmh 29.97 in1014.9 mb 0.00 in0.0 mm 0.00 in0.0 mm 0.00 in0.0 mm
06:30 AM 24.5°F-4.2°C 22.5°F-5.3°C 92% 1.0 mph W1.6 kmh W 4.0 mph6.4 kmh 29.97 in1014.9 mb 0.00 in0.0 mm 0.00 in0.0 mm 0.00 in0.0 mm
06:25 AM 24.5°F-4.2°C 22.5°F-5.3°C 92% 1.0 mph W1.6 kmh W 6.0 mph9.7 kmh 29.96 in1014.6 mb 0.00 in0.0 mm 0.00 in0.0 mm 0.00 in0.0 mm
06:20 AM 24.6°F-4.1°C 22.6°F-5.2°C 92% 1.0 mph NW1.6 kmh NW 4.0 mph6.4 kmh 29.96 in1014.6 mb 0.00 in0.0 mm 0.00 in0.0 mm 0.00 in0.0 mm
06:15 AM 24.6°F-4.1°C 22.6°F-5.2°C 92% 1.0 mph WNW1.6 kmh WNW 7.0 mph11.3 kmh 29.96 in1014.6 mb 0.00 in0.0 mm 0.00 in0.0 mm 0.00 in0.0 mm
06:10 AM 24.7°F-4.1°C 22.7°F-5.2°C 92% 2.0 mph WNW3.2 kmh WNW 7.0 mph11.3 kmh 29.96 in1014.6 mb 0.00 in0.0 mm 0.00 in0.0 mm 0.00 in0.0 mm
06:05 AM 24.8°F-4.0°C 22.6°F-5.2°C 91% 1.0 mph WNW1.6 kmh WNW 5.0 mph8.0 kmh 29.96 in1014.6 mb 0.00 in0.0 mm 0.00 in0.0 mm 0.00 in0.0 mm
06:00 AM 24.8°F-4.0°C 22.6°F-5.2°C 91% 1.0 mph 1.6 kmh 3.0 mph4.8 kmh 29.96 in1014.6 mb 0.00 in0.0 mm 0.00 in0.0 mm 0.00 in0.0 mm
05:55 AM 24.9°F-3.9°C 22.7°F-5.2°C 91% Calm Calm 2.0 mph3.2 kmh 29.96 in1014.6 mb 0.00 in0.0 mm 0.00 in0.0 mm 0.00 in0.0 mm
05:50 AM 24.9°F-3.9°C 22.7°F-5.2°C 91% 1.0 mph ENE1.6 kmh ENE 6.0 mph9.7 kmh 29.96 in1014.6 mb 0.00 in0.0 mm 0.00 in0.0 mm 0.00 in0.0 mm
05:45 AM 25.0°F-3.9°C 22.5°F-5.3°C 90% 1.0 mph WSW1.6 kmh WSW 3.0 mph4.8 kmh 29.95 in1014.2 mb 0.00 in0.0 mm 0.00 in0.0 mm 0.00 in0.0 mm
05:40 AM 25.2°F-3.8°C 22.7°F-5.2°C 90% 1.0 mph E1.6 kmh E 4.0 mph6.4 kmh 29.95 in1014.2 mb 0.00 in0.0 mm 0.00 in0.0 mm 0.00 in0.0 mm
05:35 AM 25.2°F-3.8°C 22.7°F-5.2°C 90% 1.0 mph E1.6 kmh E 4.0 mph6.4 kmh 29.95 in1014.2 mb 0.00 in0.0 mm 0.00 in0.0 mm 0.00 in0.0 mm
05:30 AM 25.4°F-3.7°C 22.9°F-5.1°C 90% 1.0 mph W1.6 kmh W 7.0 mph11.3 kmh 29.94 in1013.9 mb 0.00 in0.0 mm 0.00 in0.0 mm 0.00 in0.0 mm
05:25 AM 25.4°F-3.7°C 22.6°F-5.2°C 89% 1.0 mph WNW1.6 kmh WNW 2.0 mph3.2 kmh 29.94 in1013.9 mb 0.00 in0.0 mm 0.00 in0.0 mm 0.00 in0.0 mm
05:20 AM 25.6°F-3.6°C 22.8°F-5.1°C 89% 1.0 mph ENE1.6 kmh ENE 2.0 mph3.2 kmh 29.94 in1013.9 mb 0.00 in0.0 mm 0.00 in0.0 mm 0.00 in0.0 mm
05:15 AM 25.7°F-3.5°C 22.9°F-5.1°C 89% Calm Calm 2.0 mph3.2 kmh 29.94 in1013.9 mb 0.00 in0.0 mm 0.00 in0.0 mm 0.00 in0.0 mm
05:10 AM 25.9°F-3.4°C 22.8°F-5.1°C 88% 1.0 mph WNW1.6 kmh WNW 4.0 mph6.4 kmh 29.94 in1013.9 mb 0.00 in0.0 mm 0.00 in0.0 mm 0.00 in0.0 mm
05:05 AM 26.0°F-3.3°C 22.9°F-5.1°C 88% 1.0 mph W1.6 kmh W 3.0 mph4.8 kmh 29.93 in1013.5 mb 0.00 in0.0 mm 0.00 in0.0 mm 0.00 in0.0 mm
05:00 AM 26.2°F-3.2°C 22.9°F-5.1°C 87% 1.0 mph E1.6 kmh E 5.0 mph8.0 kmh 29.93 in1013.5 mb 0.00 in0.0 mm 0.00 in0.0 mm 0.00 in0.0 mm
04:55 AM 26.4°F-3.1°C 23.1°F-4.9°C 87% 1.0 mph ESE1.6 kmh ESE 6.0 mph9.7 kmh 29.93 in1013.5 mb 0.00 in0.0 mm 0.00 in0.0 mm 0.00 in0.0 mm
04:50 AM 26.6°F-3.0°C 23.3°F-4.8°C 87% Calm Calm 2.0 mph3.2 kmh 29.93 in1013.5 mb 0.00 in0.0 mm 0.00 in0.0 mm 0.00 in0.0 mm
04:45 AM 26.9°F-2.8°C 23.3°F-4.8°C 86% 1.0 mph WNW1.6 kmh WNW 3.0 mph4.8 kmh 29.93 in1013.5 mb 0.00 in0.0 mm 0.00 in0.0 mm 0.00 in0.0 mm
04:40 AM 27.0°F-2.8°C 23.4°F-4.8°C 86% Calm Calm 3.0 mph4.8 kmh 29.93 in1013.5 mb 0.00 in0.0 mm 0.00 in0.0 mm 0.00 in0.0 mm
04:35 AM 27.1°F-2.7°C 23.5°F-4.7°C 86% 1.0 mph WSW1.6 kmh WSW 2.0 mph3.2 kmh 29.93 in1013.5 mb 0.00 in0.0 mm 0.00 in0.0 mm 0.00 in0.0 mm
04:30 AM 27.3°F-2.6°C 23.7°F-4.6°C 86% Calm Calm 2.0 mph3.2 kmh 29.92 in1013.2 mb 0.00 in0.0 mm 0.00 in0.0 mm 0.00 in0.0 mm
04:25 AM 27.4°F-2.6°C 24.1°F-4.4°C 87% Calm Calm 2.0 mph3.2 kmh 29.92 in1013.2 mb 0.00 in0.0 mm 0.00 in0.0 mm 0.00 in0.0 mm
04:20 AM 27.4°F-2.6°C 23.8°F-4.6°C 86% Calm Calm -- 29.92 in1013.2 mb 0.00 in0.0 mm 0.00 in0.0 mm 0.00 in0.0 mm
04:15 AM 27.4°F-2.6°C 23.8°F-4.6°C 86% Calm Calm -- 29.92 in1013.2 mb 0.00 in0.0 mm 0.00 in0.0 mm 0.00 in0.0 mm
04:10 AM 27.4°F-2.6°C 23.8°F-4.6°C 86% Calm Calm 1.0 mph1.6 kmh 29.92 in1013.2 mb 0.00 in0.0 mm 0.00 in0.0 mm 0.00 in0.0 mm
04:05 AM 27.3°F-2.6°C 23.7°F-4.6°C 86% 1.0 mph W1.6 kmh W 3.0 mph4.8 kmh 29.93 in1013.5 mb 0.00 in0.0 mm 0.00 in0.0 mm 0.00 in0.0 mm
04:00 AM 27.3°F-2.6°C 23.7°F-4.6°C 86% 1.0 mph W1.6 kmh W 2.0 mph3.2 kmh 29.92 in1013.2 mb 0.00 in0.0 mm 0.00 in0.0 mm 0.00 in0.0 mm
03:55 AM 27.2°F-2.7°C 23.6°F-4.7°C 86% Calm Calm -- 29.92 in1013.2 mb 0.00 in0.0 mm 0.00 in0.0 mm 0.00 in0.0 mm
03:50 AM 27.1°F-2.7°C 23.5°F-4.7°C 86% Calm Calm -- 29.92 in1013.2 mb 0.00 in0.0 mm 0.00 in0.0 mm 0.00 in0.0 mm
03:45 AM 27.0°F-2.8°C 23.4°F-4.8°C 86% Calm Calm -- 29.92 in1013.2 mb 0.00 in0.0 mm 0.00 in0.0 mm 0.00 in0.0 mm
03:40 AM 27.0°F-2.8°C 23.4°F-4.8°C 86% Calm Calm -- 29.92 in1013.2 mb 0.00 in0.0 mm 0.00 in0.0 mm 0.00 in0.0 mm
03:35 AM 26.9°F-2.8°C 23.3°F-4.8°C 86% Calm Calm -- 29.91 in1012.9 mb 0.00 in0.0 mm 0.00 in0.0 mm 0.00 in0.0 mm
03:30 AM 26.8°F-2.9°C 23.2°F-4.9°C 86% Calm Calm -- 29.92 in1013.2 mb 0.00 in0.0 mm 0.00 in0.0 mm 0.00 in0.0 mm
03:25 AM 26.7°F-2.9°C 23.1°F-4.9°C 86% Calm Calm -- 29.92 in1013.2 mb 0.00 in0.0 mm 0.00 in0.0 mm 0.00 in0.0 mm
03:20 AM 26.7°F-2.9°C 23.1°F-4.9°C 86% Calm Calm 1.0 mph1.6 kmh 29.91 in1012.9 mb 0.00 in0.0 mm 0.00 in0.0 mm 0.00 in0.0 mm
03:15 AM 26.5°F-3.1°C 22.9°F-5.1°C 86% Calm Calm 2.0 mph3.2 kmh 29.91 in1012.9 mb 0.00 in0.0 mm 0.00 in0.0 mm 0.00 in0.0 mm
03:10 AM 26.4°F-3.1°C 22.8°F-5.1°C 86% Calm Calm 1.0 mph1.6 kmh 29.91 in1012.9 mb 0.00 in0.0 mm 0.00 in0.0 mm 0.00 in0.0 mm
03:05 AM 26.3°F-3.2°C 22.7°F-5.2°C 86% Calm Calm 2.0 mph3.2 kmh 29.91 in1012.9 mb 0.00 in0.0 mm 0.00 in0.0 mm 0.00 in0.0 mm
03:00 AM 26.2°F-3.2°C 22.6°F-5.2°C 86% Calm Calm -- 29.91 in1012.9 mb 0.00 in0.0 mm 0.00 in0.0 mm 0.00 in0.0 mm
02:55 AM 26.1°F-3.3°C 22.5°F-5.3°C 86% Calm Calm 5.0 mph8.0 kmh 29.91 in1012.9 mb 0.00 in0.0 mm 0.00 in0.0 mm 0.00 in0.0 mm
02:50 AM 26.1°F-3.3°C 22.5°F-5.3°C 86% Calm Calm 1.0 mph1.6 kmh 29.91 in1012.9 mb 0.00 in0.0 mm 0.00 in0.0 mm 0.00 in0.0 mm
02:45 AM 26.0°F-3.3°C 22.4°F-5.3°C 86% Calm Calm -- 29.91 in1012.9 mb 0.00 in0.0 mm 0.00 in0.0 mm 0.00 in0.0 mm
02:40 AM 25.9°F-3.4°C 22.3°F-5.4°C 86% Calm Calm 2.0 mph3.2 kmh 29.91 in1012.9 mb 0.00 in0.0 mm 0.00 in0.0 mm 0.00 in0.0 mm
02:35 AM 25.9°F-3.4°C 22.3°F-5.4°C 86% Calm Calm 2.0 mph3.2 kmh 29.91 in1012.9 mb 0.00 in0.0 mm 0.00 in0.0 mm 0.00 in0.0 mm
02:30 AM 25.8°F-3.4°C 22.2°F-5.4°C 86% Calm Calm -- 29.90 in1012.5 mb 0.00 in0.0 mm 0.00 in0.0 mm 0.00 in0.0 mm
02:25 AM 25.8°F-3.4°C 22.2°F-5.4°C 86% Calm Calm 2.0 mph3.2 kmh 29.90 in1012.5 mb 0.00 in0.0 mm 0.00 in0.0 mm 0.00 in0.0 mm
02:20 AM 25.7°F-3.5°C 22.1°F-5.5°C 86% 1.0 mph SSE1.6 kmh SSE 5.0 mph8.0 kmh 29.90 in1012.5 mb 0.00 in0.0 mm 0.00 in0.0 mm 0.00 in0.0 mm
02:15 AM 25.7°F-3.5°C 21.8°F-5.7°C 85% 1.0 mph SSE1.6 kmh SSE 4.0 mph6.4 kmh 29.89 in1012.2 mb 0.00 in0.0 mm 0.00 in0.0 mm 0.00 in0.0 mm
02:10 AM 25.6°F-3.6°C 21.7°F-5.7°C 85% 2.0 mph ESE3.2 kmh ESE 7.0 mph11.3 kmh 29.90 in1012.5 mb 0.00 in0.0 mm 0.00 in0.0 mm 0.00 in0.0 mm
02:05 AM 25.5°F-3.6°C 21.6°F-5.8°C 85% 2.0 mph SE3.2 kmh SE 4.0 mph6.4 kmh 29.89 in1012.2 mb 0.00 in0.0 mm 0.00 in0.0 mm 0.00 in0.0 mm
02:00 AM 25.4°F-3.7°C 21.5°F-5.8°C 85% 3.0 mph ESE4.8 kmh ESE 8.0 mph12.9 kmh 29.90 in1012.5 mb 0.00 in0.0 mm 0.00 in0.0 mm 0.00 in0.0 mm
01:55 AM 25.4°F-3.7°C 21.5°F-5.8°C 85% 2.0 mph S3.2 kmh S 5.0 mph8.0 kmh 29.90 in1012.5 mb 0.00 in0.0 mm 0.00 in0.0 mm 0.00 in0.0 mm
01:50 AM 25.3°F-3.7°C 21.4°F-5.9°C 85% 3.0 mph ESE4.8 kmh ESE 8.0 mph12.9 kmh 29.89 in1012.2 mb 0.00 in0.0 mm 0.00 in0.0 mm 0.00 in0.0 mm
01:45 AM 25.2°F-3.8°C 21.3°F-5.9°C 85% 3.0 mph ESE4.8 kmh ESE 8.0 mph12.9 kmh 29.90 in1012.5 mb 0.00 in0.0 mm 0.00 in0.0 mm 0.00 in0.0 mm
01:40 AM 25.1°F-3.8°C 21.2°F-6.0°C 85% 3.0 mph SSE4.8 kmh SSE 11.0 mph17.7 kmh 29.90 in1012.5 mb 0.00 in0.0 mm 0.00 in0.0 mm 0.00 in0.0 mm
01:35 AM 25.0°F-3.9°C 21.1°F-6.1°C 85% 3.0 mph SE4.8 kmh SE 8.0 mph12.9 kmh 29.90 in1012.5 mb 0.00 in0.0 mm 0.00 in0.0 mm 0.00 in0.0 mm
01:30 AM 24.9°F-3.9°C 21.0°F-6.1°C 85% 4.0 mph SE6.4 kmh SE 10.0 mph16.1 kmh 29.90 in1012.5 mb 0.00 in0.0 mm 0.00 in0.0 mm 0.00 in0.0 mm
01:25 AM 24.8°F-4.0°C 20.9°F-6.2°C 85% 3.0 mph E4.8 kmh E 10.0 mph16.1 kmh 29.90 in1012.5 mb 0.00 in0.0 mm 0.00 in0.0 mm 0.00 in0.0 mm
01:20 AM 24.7°F-4.1°C 20.8°F-6.2°C 85% 3.0 mph SE4.8 kmh SE 9.0 mph14.5 kmh 29.90 in1012.5 mb 0.00 in0.0 mm 0.00 in0.0 mm 0.00 in0.0 mm
01:15 AM 24.6°F-4.1°C 20.7°F-6.3°C 85% 3.0 mph SE4.8 kmh SE 9.0 mph14.5 kmh 29.90 in1012.5 mb 0.00 in0.0 mm 0.00 in0.0 mm 0.00 in0.0 mm
01:10 AM 24.5°F-4.2°C 20.6°F-6.3°C 85% 2.0 mph SE3.2 kmh SE 8.0 mph12.9 kmh 29.90 in1012.5 mb 0.00 in0.0 mm 0.00 in0.0 mm 0.00 in0.0 mm
01:05 AM 24.4°F-4.2°C 20.6°F-6.3°C 85% 2.0 mph SE3.2 kmh SE 7.0 mph11.3 kmh 29.90 in1012.5 mb 0.00 in0.0 mm 0.00 in0.0 mm 0.00 in0.0 mm
01:00 AM 24.3°F-4.3°C 20.5°F-6.4°C 85% 2.0 mph S3.2 kmh S 9.0 mph14.5 kmh 29.90 in1012.5 mb 0.00 in0.0 mm 0.00 in0.0 mm 0.00 in0.0 mm
12:55 AM 24.2°F-4.3°C 20.4°F-6.4°C 85% 2.0 mph SE3.2 kmh SE 8.0 mph12.9 kmh 29.90 in1012.5 mb 0.00 in0.0 mm 0.00 in0.0 mm 0.00 in0.0 mm
12:50 AM 24.1°F-4.4°C 20.3°F-6.5°C 85% 2.0 mph ESE3.2 kmh ESE 7.0 mph11.3 kmh 29.90 in1012.5 mb 0.00 in0.0 mm 0.00 in0.0 mm 0.00 in0.0 mm
12:45 AM 24.0°F-4.4°C 20.2°F-6.6°C 85% 2.0 mph SSE3.2 kmh SSE 10.0 mph16.1 kmh 29.91 in1012.9 mb 0.00 in0.0 mm 0.00 in0.0 mm 0.00 in0.0 mm
12:40 AM 24.0°F-4.4°C 20.2°F-6.6°C 85% 3.0 mph ESE4.8 kmh ESE 9.0 mph14.5 kmh 29.90 in1012.5 mb 0.00 in0.0 mm 0.00 in0.0 mm 0.00 in0.0 mm
12:35 AM 23.8°F-4.6°C 20.0°F-6.7°C 85% 2.0 mph ESE3.2 kmh ESE 8.0 mph12.9 kmh 29.91 in1012.9 mb 0.00 in0.0 mm 0.00 in0.0 mm 0.00 in0.0 mm
12:30 AM 23.6°F-4.7°C 19.8°F-6.8°C 85% 3.0 mph ESE4.8 kmh ESE 9.0 mph14.5 kmh 29.91 in1012.9 mb 0.00 in0.0 mm 0.00 in0.0 mm 0.00 in0.0 mm
12:25 AM 23.4°F-4.8°C 19.6°F-6.9°C 85% 2.0 mph SE3.2 kmh SE 7.0 mph11.3 kmh 29.91 in1012.9 mb 0.00 in0.0 mm 0.00 in0.0 mm 0.00 in0.0 mm
12:20 AM 23.3°F-4.8°C 19.5°F-6.9°C 85% 3.0 mph ESE4.8 kmh ESE 7.0 mph11.3 kmh 29.91 in1012.9 mb 0.00 in0.0 mm 0.00 in0.0 mm 0.00 in0.0 mm
12:15 AM 23.3°F-4.8°C 19.5°F-6.9°C 85% 3.0 mph SE4.8 kmh SE 10.0 mph16.1 kmh 29.91 in1012.9 mb 0.00 in0.0 mm 0.00 in0.0 mm 0.00 in0.0 mm
12:10 AM 23.1°F-4.9°C 19.3°F-7.1°C 85% 2.0 mph SE3.2 kmh SE 8.0 mph12.9 kmh 29.91 in1012.9 mb 0.00 in0.0 mm 0.00 in0.0 mm 0.00 in0.0 mm
12:05 AM 23.0°F-5.0°C 19.2°F-7.1°C 85% 2.0 mph SE3.2 kmh SE 4.0 mph6.4 kmh 29.91 in1012.9 mb 0.00 in0.0 mm 0.00 in0.0 mm 0.00 in0.0 mm
12:00 AM 23.0°F-5.0°C 19.2°F-7.1°C 85% 2.0 mph SE3.2 kmh SE 8.0 mph12.9 kmh 29.91 in1012.9 mb 0.00 in0.0 mm 0.00 in0.0 mm 0.00 in0.0 mm